sensor_id;sensor_type;location;lat;lon;timestamp;temperature;humidity
2327;DHT22;1174;51.588;7.328;2023-04-24T00:02:03;12.60;99.90
2327;DHT22;1174;51.588;7.328;2023-04-24T00:04:32;12.50;99.90
2327;DHT22;1174;51.588;7.328;2023-04-24T00:07:03;12.40;99.90
2327;DHT22;1174;51.588;7.328;2023-04-24T00:09:32;12.40;99.90
2327;DHT22;1174;51.588;7.328;2023-04-24T00:11:59;12.40;99.90
2327;DHT22;1174;51.588;7.328;2023-04-24T00:14:29;12.40;99.90
2327;DHT22;1174;51.588;7.328;2023-04-24T00:16:56;12.40;99.90
2327;DHT22;1174;51.588;7.328;2023-04-24T00:19:24;12.40;99.90
2327;DHT22;1174;51.588;7.328;2023-04-24T00:21:51;12.40;99.90
2327;DHT22;1174;51.588;7.328;2023-04-24T00:24:19;12.40;99.90
2327;DHT22;1174;51.588;7.328;2023-04-24T00:26:47;12.40;99.90
2327;DHT22;1174;51.588;7.328;2023-04-24T00:29:15;12.50;99.90
2327;DHT22;1174;51.588;7.328;2023-04-24T00:31:42;12.60;99.90
2327;DHT22;1174;51.588;7.328;2023-04-24T00:34:10;12.40;99.90
2327;DHT22;1174;51.588;7.328;2023-04-24T00:36:40;12.30;99.90
2327;DHT22;1174;51.588;7.328;2023-04-24T00:39:07;12.10;99.90
2327;DHT22;1174;51.588;7.328;2023-04-24T00:41:37;12.20;99.90
2327;DHT22;1174;51.588;7.328;2023-04-24T00:44:06;12.20;99.90
2327;DHT22;1174;51.588;7.328;2023-04-24T00:46:33;12.10;99.90
2327;DHT22;1174;51.588;7.328;2023-04-24T00:49:01;12.00;99.90
2327;DHT22;1174;51.588;7.328;2023-04-24T00:51:29;12.00;99.90
2327;DHT22;1174;51.588;7.328;2023-04-24T00:53:56;12.00;99.90
2327;DHT22;1174;51.588;7.328;2023-04-24T00:56:23;11.90;99.90
2327;DHT22;1174;51.588;7.328;2023-04-24T00:58:53;11.90;99.90
2327;DHT22;1174;51.588;7.328;2023-04-24T01:01:21;11.90;99.90
2327;DHT22;1174;51.588;7.328;2023-04-24T01:03:49;11.90;99.90
2327;DHT22;1174;51.588;7.328;2023-04-24T01:06:18;11.90;99.90
2327;DHT22;1174;51.588;7.328;2023-04-24T01:08:46;11.90;99.90
2327;DHT22;1174;51.588;7.328;2023-04-24T01:11:21;11.80;99.90
2327;DHT22;1174;51.588;7.328;2023-04-24T01:13:49;11.70;99.90
2327;DHT22;1174;51.588;7.328;2023-04-24T01:16:18;11.60;99.90
2327;DHT22;1174;51.588;7.328;2023-04-24T01:18:46;11.70;99.90
2327;DHT22;1174;51.588;7.328;2023-04-24T01:21:14;11.60;99.90
2327;DHT22;1174;51.588;7.328;2023-04-24T01:23:43;11.60;99.90
2327;DHT22;1174;51.588;7.328;2023-04-24T01:26:10;11.60;99.90
2327;DHT22;1174;51.588;7.328;2023-04-24T01:28:38;11.50;99.90
2327;DHT22;1174;51.588;7.328;2023-04-24T01:31:05;11.60;99.90
2327;DHT22;1174;51.588;7.328;2023-04-24T01:33:33;11.50;99.90
2327;DHT22;1174;51.588;7.328;2023-04-24T01:36:00;11.50;99.90
2327;DHT22;1174;51.588;7.328;2023-04-24T01:38:27;11.50;99.90
2327;DHT22;1174;51.588;7.328;2023-04-24T01:40:57;11.50;99.90
2327;DHT22;1174;51.588;7.328;2023-04-24T01:43:26;11.40;99.90
2327;DHT22;1174;51.588;7.328;2023-04-24T01:45:53;11.40;99.90
2327;DHT22;1174;51.588;7.328;2023-04-24T01:48:20;11.60;99.90
2327;DHT22;1174;51.588;7.328;2023-04-24T01:50:47;11.60;99.90
2327;DHT22;1174;51.588;7.328;2023-04-24T01:53:15;11.60;99.90
2327;DHT22;1174;51.588;7.328;2023-04-24T01:55:42;11.50;99.90
2327;DHT22;1174;51.588;7.328;2023-04-24T01:58:11;11.40;99.90
2327;DHT22;1174;51.588;7.328;2023-04-24T02:00:38;11.30;99.90
2327;DHT22;1174;51.588;7.328;2023-04-24T02:03:05;11.30;99.90
2327;DHT22;1174;51.588;7.328;2023-04-24T02:05:34;11.30;99.90
2327;DHT22;1174;51.588;7.328;2023-04-24T02:08:01;11.30;99.90
2327;DHT22;1174;51.588;7.328;2023-04-24T02:10:29;11.30;99.90
2327;DHT22;1174;51.588;7.328;2023-04-24T02:12:58;11.10;99.90
2327;DHT22;1174;51.588;7.328;2023-04-24T02:15:29;11.00;99.90
2327;DHT22;1174;51.588;7.328;2023-04-24T02:17:56;11.00;99.90
2327;DHT22;1174;51.588;7.328;2023-04-24T02:20:23;10.90;99.90
2327;DHT22;1174;51.588;7.328;2023-04-24T02:22:50;10.90;99.90
2327;DHT22;1174;51.588;7.328;2023-04-24T02:25:18;10.90;99.90
2327;DHT22;1174;51.588;7.328;2023-04-24T02:27:45;10.90;99.90
2327;DHT22;1174;51.588;7.328;2023-04-24T02:30:12;10.80;99.90
2327;DHT22;1174;51.588;7.328;2023-04-24T02:32:41;10.90;99.90
2327;DHT22;1174;51.588;7.328;2023-04-24T02:35:08;10.90;99.90
2327;DHT22;1174;51.588;7.328;2023-04-24T02:37:35;10.80;99.90
2327;DHT22;1174;51.588;7.328;2023-04-24T02:40:05;10.80;99.90
2327;DHT22;1174;51.588;7.328;2023-04-24T02:42:32;10.80;99.90
2327;DHT22;1174;51.588;7.328;2023-04-24T02:44:59;10.60;99.90
2327;DHT22;1174;51.588;7.328;2023-04-24T02:47:26;10.50;99.90
2327;DHT22;1174;51.588;7.328;2023-04-24T02:49:55;10.50;99.90
2327;DHT22;1174;51.588;7.328;2023-04-24T02:52:27;10.40;99.90
2327;DHT22;1174;51.588;7.328;2023-04-24T02:54:54;10.40;99.90
2327;DHT22;1174;51.588;7.328;2023-04-24T02:57:21;10.30;99.90
2327;DHT22;1174;51.588;7.328;2023-04-24T02:59:49;10.40;99.90
2327;DHT22;1174;51.588;7.328;2023-04-24T03:02:17;10.40;99.90
2327;DHT22;1174;51.588;7.328;2023-04-24T03:04:46;10.40;99.90
2327;DHT22;1174;51.588;7.328;2023-04-24T03:07:16;10.50;99.90
2327;DHT22;1174;51.588;7.328;2023-04-24T03:09:46;10.50;99.90
2327;DHT22;1174;51.588;7.328;2023-04-24T03:12:13;10.50;99.90
2327;DHT22;1174;51.588;7.328;2023-04-24T03:14:42;10.50;99.90
2327;DHT22;1174;51.588;7.328;2023-04-24T03:17:09;10.50;99.90
2327;DHT22;1174;51.588;7.328;2023-04-24T03:19:36;10.60;99.90
2327;DHT22;1174;51.588;7.328;2023-04-24T03:22:04;10.60;99.90
2327;DHT22;1174;51.588;7.328;2023-04-24T03:24:32;10.50;99.90
2327;DHT22;1174;51.588;7.328;2023-04-24T03:26:59;10.50;99.90
2327;DHT22;1174;51.588;7.328;2023-04-24T03:29:27;10.50;99.90
2327;DHT22;1174;51.588;7.328;2023-04-24T03:31:53;10.60;99.90
2327;DHT22;1174;51.588;7.328;2023-04-24T03:34:24;10.60;99.90
2327;DHT22;1174;51.588;7.328;2023-04-24T03:36:50;10.70;99.90
2327;DHT22;1174;51.588;7.328;2023-04-24T03:39:18;10.80;99.90
2327;DHT22;1174;51.588;7.328;2023-04-24T03:41:46;10.70;99.90
2327;DHT22;1174;51.588;7.328;2023-04-24T03:44:13;10.70;99.90
2327;DHT22;1174;51.588;7.328;2023-04-24T03:46:40;10.70;99.90
2327;DHT22;1174;51.588;7.328;2023-04-24T03:49:07;10.80;99.90
2327;DHT22;1174;51.588;7.328;2023-04-24T03:51:35;10.70;99.90
2327;DHT22;1174;51.588;7.328;2023-04-24T03:54:02;10.70;99.90
2327;DHT22;1174;51.588;7.328;2023-04-24T03:56:29;10.70;99.90
2327;DHT22;1174;51.588;7.328;2023-04-24T03:58:58;10.80;99.90
2327;DHT22;1174;51.588;7.328;2023-04-24T04:01:25;10.80;99.90
2327;DHT22;1174;51.588;7.328;2023-04-24T04:03:56;10.80;99.90
2327;DHT22;1174;51.588;7.328;2023-04-24T04:06:27;10.80;99.90
2327;DHT22;1174;51.588;7.328;2023-04-24T04:08:54;10.80;99.90
2327;DHT22;1174;51.588;7.328;2023-04-24T04:11:24;11.00;99.90
2327;DHT22;1174;51.588;7.328;2023-04-24T04:13:53;10.80;99.90
2327;DHT22;1174;51.588;7.328;2023-04-24T04:16:21;10.80;99.90
2327;DHT22;1174;51.588;7.328;2023-04-24T04:18:48;10.70;99.90
2327;DHT22;1174;51.588;7.328;2023-04-24T04:21:17;10.70;99.90
2327;DHT22;1174;51.588;7.328;2023-04-24T04:23:45;10.70;99.90
2327;DHT22;1174;51.588;7.328;2023-04-24T04:26:12;10.70;99.90
2327;DHT22;1174;51.588;7.328;2023-04-24T04:28:39;10.70;99.90
2327;DHT22;1174;51.588;7.328;2023-04-24T04:31:06;10.80;99.90
2327;DHT22;1174;51.588;7.328;2023-04-24T04:33:36;10.80;99.90
2327;DHT22;1174;51.588;7.328;2023-04-24T04:36:04;10.70;99.90
2327;DHT22;1174;51.588;7.328;2023-04-24T04:38:31;10.70;99.90
2327;DHT22;1174;51.588;7.328;2023-04-24T04:40:59;10.80;99.90
2327;DHT22;1174;51.588;7.328;2023-04-24T04:43:28;10.80;99.90
2327;DHT22;1174;51.588;7.328;2023-04-24T04:45:58;10.80;99.90
2327;DHT22;1174;51.588;7.328;2023-04-24T04:48:26;10.80;99.90
2327;DHT22;1174;51.588;7.328;2023-04-24T04:50:55;10.70;99.90
2327;DHT22;1174;51.588;7.328;2023-04-24T04:53:24;10.70;99.90
2327;DHT22;1174;51.588;7.328;2023-04-24T04:55:52;10.70;99.90
2327;DHT22;1174;51.588;7.328;2023-04-24T04:58:19;10.80;99.90
2327;DHT22;1174;51.588;7.328;2023-04-24T05:00:46;10.70;99.90
2327;DHT22;1174;51.588;7.328;2023-04-24T05:03:14;10.70;99.90
2327;DHT22;1174;51.588;7.328;2023-04-24T05:05:41;10.70;99.90
2327;DHT22;1174;51.588;7.328;2023-04-24T05:08:09;10.80;99.90
2327;DHT22;1174;51.588;7.328;2023-04-24T05:10:37;10.80;99.90
2327;DHT22;1174;51.588;7.328;2023-04-24T05:13:04;10.70;99.90
2327;DHT22;1174;51.588;7.328;2023-04-24T05:15:34;10.80;99.90
2327;DHT22;1174;51.588;7.328;2023-04-24T05:18:01;10.80;99.90
2327;DHT22;1174;51.588;7.328;2023-04-24T05:20:28;10.70;99.90
2327;DHT22;1174;51.588;7.328;2023-04-24T05:22:56;10.60;99.90
2327;DHT22;1174;51.588;7.328;2023-04-24T05:25:24;10.60;99.90
2327;DHT22;1174;51.588;7.328;2023-04-24T05:27:53;10.70;99.90
2327;DHT22;1174;51.588;7.328;2023-04-24T05:30:20;10.80;99.90
2327;DHT22;1174;51.588;7.328;2023-04-24T05:32:47;10.90;99.90
2327;DHT22;1174;51.588;7.328;2023-04-24T05:35:14;10.90;99.90
2327;DHT22;1174;51.588;7.328;2023-04-24T05:37:42;10.90;99.90
2327;DHT22;1174;51.588;7.328;2023-04-24T05:40:09;11.10;99.90
2327;DHT22;1174;51.588;7.328;2023-04-24T05:42:40;11.00;99.90
2327;DHT22;1174;51.588;7.328;2023-04-24T05:45:08;10.90;99.90
2327;DHT22;1174;51.588;7.328;2023-04-24T05:47:37;11.00;99.90
2327;DHT22;1174;51.588;7.328;2023-04-24T05:50:06;11.00;99.90
2327;DHT22;1174;51.588;7.328;2023-04-24T05:52:33;11.00;99.90
2327;DHT22;1174;51.588;7.328;2023-04-24T05:55:00;10.90;99.90
2327;DHT22;1174;51.588;7.328;2023-04-24T05:57:27;10.90;99.90
2327;DHT22;1174;51.588;7.328;2023-04-24T05:59:57;10.90;99.90
2327;DHT22;1174;51.588;7.328;2023-04-24T06:02:24;10.90;99.90
2327;DHT22;1174;51.588;7.328;2023-04-24T06:04:51;10.70;99.90
2327;DHT22;1174;51.588;7.328;2023-04-24T06:07:20;10.50;99.90
2327;DHT22;1174;51.588;7.328;2023-04-24T06:09:47;10.40;99.90
2327;DHT22;1174;51.588;7.328;2023-04-24T06:12:14;10.20;99.90
2327;DHT22;1174;51.588;7.328;2023-04-24T06:14:41;10.20;99.90
2327;DHT22;1174;51.588;7.328;2023-04-24T06:17:10;10.20;99.90
2327;DHT22;1174;51.588;7.328;2023-04-24T06:19:37;10.30;99.90
2327;DHT22;1174;51.588;7.328;2023-04-24T06:22:04;10.30;99.90
2327;DHT22;1174;51.588;7.328;2023-04-24T06:24:31;10.20;99.90
2327;DHT22;1174;51.588;7.328;2023-04-24T06:26:59;10.10;99.90
2327;DHT22;1174;51.588;7.328;2023-04-24T06:29:26;10.10;99.90
2327;DHT22;1174;51.588;7.328;2023-04-24T06:31:53;10.20;99.90
2327;DHT22;1174;51.588;7.328;2023-04-24T06:34:22;10.20;99.90
2327;DHT22;1174;51.588;7.328;2023-04-24T06:36:49;10.30;99.90
2327;DHT22;1174;51.588;7.328;2023-04-24T06:39:16;10.40;99.90
2327;DHT22;1174;51.588;7.328;2023-04-24T06:41:45;10.30;99.90
2327;DHT22;1174;51.588;7.328;2023-04-24T06:44:12;10.30;99.90
2327;DHT22;1174;51.588;7.328;2023-04-24T06:46:41;10.20;99.90
2327;DHT22;1174;51.588;7.328;2023-04-24T06:49:10;10.20;99.90
2327;DHT22;1174;51.588;7.328;2023-04-24T06:51:38;10.20;99.90
2327;DHT22;1174;51.588;7.328;2023-04-24T06:54:08;10.30;99.90
2327;DHT22;1174;51.588;7.328;2023-04-24T06:56:41;10.40;99.90
2327;DHT22;1174;51.588;7.328;2023-04-24T06:59:18;10.50;99.90
2327;DHT22;1174;51.588;7.328;2023-04-24T07:01:48;10.60;99.90
2327;DHT22;1174;51.588;7.328;2023-04-24T07:04:15;10.50;99.90
2327;DHT22;1174;51.588;7.328;2023-04-24T07:06:44;10.50;99.90
2327;DHT22;1174;51.588;7.328;2023-04-24T07:09:14;10.50;99.90
2327;DHT22;1174;51.588;7.328;2023-04-24T07:11:41;10.60;99.90
2327;DHT22;1174;51.588;7.328;2023-04-24T07:14:10;10.70;99.90
2327;DHT22;1174;51.588;7.328;2023-04-24T07:16:37;10.70;99.90
2327;DHT22;1174;51.588;7.328;2023-04-24T07:19:04;10.70;99.90
2327;DHT22;1174;51.588;7.328;2023-04-24T07:21:32;10.50;99.90
2327;DHT22;1174;51.588;7.328;2023-04-24T07:24:01;10.60;99.90
2327;DHT22;1174;51.588;7.328;2023-04-24T07:26:29;10.60;99.90
2327;DHT22;1174;51.588;7.328;2023-04-24T07:28:56;10.60;99.90
2327;DHT22;1174;51.588;7.328;2023-04-24T07:31:26;10.70;99.90
2327;DHT22;1174;51.588;7.328;2023-04-24T07:33:55;10.60;99.90
2327;DHT22;1174;51.588;7.328;2023-04-24T07:36:23;10.40;99.90
2327;DHT22;1174;51.588;7.328;2023-04-24T07:38:51;10.50;99.90
2327;DHT22;1174;51.588;7.328;2023-04-24T07:41:20;10.30;99.90
2327;DHT22;1174;51.588;7.328;2023-04-24T07:43:47;10.40;99.90
2327;DHT22;1174;51.588;7.328;2023-04-24T07:46:14;10.20;99.90
2327;DHT22;1174;51.588;7.328;2023-04-24T07:48:41;10.20;99.90
2327;DHT22;1174;51.588;7.328;2023-04-24T07:51:08;10.30;99.90
2327;DHT22;1174;51.588;7.328;2023-04-24T07:53:38;10.30;99.90
2327;DHT22;1174;51.588;7.328;2023-04-24T07:56:06;10.30;99.90
2327;DHT22;1174;51.588;7.328;2023-04-24T07:58:35;10.30;99.90
2327;DHT22;1174;51.588;7.328;2023-04-24T08:01:02;10.30;99.90
2327;DHT22;1174;51.588;7.328;2023-04-24T08:03:30;10.30;99.90
2327;DHT22;1174;51.588;7.328;2023-04-24T08:05:56;10.30;99.90
2327;DHT22;1174;51.588;7.328;2023-04-24T08:08:24;10.10;99.90
2327;DHT22;1174;51.588;7.328;2023-04-24T08:10:53;10.10;99.90
2327;DHT22;1174;51.588;7.328;2023-04-24T08:13:20;10.00;99.90
2327;DHT22;1174;51.588;7.328;2023-04-24T08:15:48;10.10;99.90
2327;DHT22;1174;51.588;7.328;2023-04-24T08:18:16;10.10;99.90
2327;DHT22;1174;51.588;7.328;2023-04-24T08:20:43;10.20;99.90
2327;DHT22;1174;51.588;7.328;2023-04-24T08:23:10;10.30;99.90
2327;DHT22;1174;51.588;7.328;2023-04-24T08:25:38;10.40;99.90
2327;DHT22;1174;51.588;7.328;2023-04-24T08:28:06;10.60;99.90
2327;DHT22;1174;51.588;7.328;2023-04-24T08:30:38;10.50;99.90
2327;DHT22;1174;51.588;7.328;2023-04-24T08:33:06;10.70;99.90
2327;DHT22;1174;51.588;7.328;2023-04-24T08:35:33;10.60;99.90
2327;DHT22;1174;51.588;7.328;2023-04-24T08:38:01;10.60;99.90
2327;DHT22;1174;51.588;7.328;2023-04-24T08:40:30;10.60;99.90
2327;DHT22;1174;51.588;7.328;2023-04-24T08:43:01;10.80;99.90
2327;DHT22;1174;51.588;7.328;2023-04-24T08:45:28;10.60;99.90
2327;DHT22;1174;51.588;7.328;2023-04-24T08:47:59;10.20;99.90
2327;DHT22;1174;51.588;7.328;2023-04-24T08:50:29;10.10;99.90
2327;DHT22;1174;51.588;7.328;2023-04-24T08:52:56;10.10;99.90
2327;DHT22;1174;51.588;7.328;2023-04-24T08:55:25;10.00;99.90
2327;DHT22;1174;51.588;7.328;2023-04-24T08:57:53;10.10;99.90
2327;DHT22;1174;51.588;7.328;2023-04-24T09:00:22;10.10;99.90
2327;DHT22;1174;51.588;7.328;2023-04-24T09:02:53;10.00;99.90
2327;DHT22;1174;51.588;7.328;2023-04-24T09:05:22;9.70;99.90
2327;DHT22;1174;51.588;7.328;2023-04-24T09:07:54;9.80;99.90
2327;DHT22;1174;51.588;7.328;2023-04-24T09:10:22;9.90;99.90
2327;DHT22;1174;51.588;7.328;2023-04-24T09:12:56;9.90;99.90
2327;DHT22;1174;51.588;7.328;2023-04-24T09:15:31;10.00;99.90
2327;DHT22;1174;51.588;7.328;2023-04-24T09:18:32;9.70;99.90
2327;DHT22;1174;51.588;7.328;2023-04-24T09:21:45;9.70;99.90
2327;DHT22;1174;51.588;7.328;2023-04-24T09:27:41;9.80;99.90
2327;DHT22;1174;51.588;7.328;2023-04-24T09:30:46;10.00;99.90
2327;DHT22;1174;51.588;7.328;2023-04-24T09:33:30;10.20;99.90
2327;DHT22;1174;51.588;7.328;2023-04-24T09:36:36;10.20;99.90
2327;DHT22;1174;51.588;7.328;2023-04-24T09:39:09;10.30;99.90
2327;DHT22;1174;51.588;7.328;2023-04-24T09:42:05;10.40;99.90
2327;DHT22;1174;51.588;7.328;2023-04-24T09:47:54;10.50;99.90
2327;DHT22;1174;51.588;7.328;2023-04-24T09:50:22;10.50;99.90
2327;DHT22;1174;51.588;7.328;2023-04-24T09:53:19;10.50;99.90
2327;DHT22;1174;51.588;7.328;2023-04-24T09:56:51;10.40;99.90
2327;DHT22;1174;51.588;7.328;2023-04-24T09:59:33;10.50;99.90
2327;DHT22;1174;51.588;7.328;2023-04-24T10:02:38;10.60;99.90
2327;DHT22;1174;51.588;7.328;2023-04-24T10:05:29;10.60;99.90
2327;DHT22;1174;51.588;7.328;2023-04-24T10:08:31;10.30;99.90
2327;DHT22;1174;51.588;7.328;2023-04-24T10:14:29;10.00;99.90
2327;DHT22;1174;51.588;7.328;2023-04-24T10:17:06;10.00;99.90
2327;DHT22;1174;51.588;7.328;2023-04-24T10:19:44;10.00;99.90
2327;DHT22;1174;51.588;7.328;2023-04-24T10:22:37;10.00;99.90
2327;DHT22;1174;51.588;7.328;2023-04-24T10:25:12;9.90;99.90
2327;DHT22;1174;51.588;7.328;2023-04-24T10:28:10;9.80;99.90
2327;DHT22;1174;51.588;7.328;2023-04-24T10:30:59;9.80;99.90
2327;DHT22;1174;51.588;7.328;2023-04-24T10:33:43;9.70;99.90
2327;DHT22;1174;51.588;7.328;2023-04-24T10:36:41;9.80;99.90
2327;DHT22;1174;51.588;7.328;2023-04-24T10:39:22;9.80;99.90
2327;DHT22;1174;51.588;7.328;2023-04-24T10:45:23;9.80;99.90
2327;DHT22;1174;51.588;7.328;2023-04-24T10:58:57;10.30;99.90
2327;DHT22;1174;51.588;7.328;2023-04-24T11:01:39;10.20;99.90
2327;DHT22;1174;51.588;7.328;2023-04-24T11:04:34;10.00;99.90
2327;DHT22;1174;51.588;7.328;2023-04-24T11:07:15;10.00;99.90
2327;DHT22;1174;51.588;7.328;2023-04-24T11:10:02;10.00;99.90
2327;DHT22;1174;51.588;7.328;2023-04-24T11:12:35;9.70;99.90
2327;DHT22;1174;51.588;7.328;2023-04-24T11:15:24;9.80;99.90
2327;DHT22;1174;51.588;7.328;2023-04-24T11:18:14;9.90;99.90
2327;DHT22;1174;51.588;7.328;2023-04-24T11:21:12;10.10;99.90
2327;DHT22;1174;51.588;7.328;2023-04-24T11:23:56;10.00;99.90
2327;DHT22;1174;51.588;7.328;2023-04-24T11:26:25;10.10;99.90
2327;DHT22;1174;51.588;7.328;2023-04-24T11:33:01;10.00;99.90
2327;DHT22;1174;51.588;7.328;2023-04-24T11:35:41;10.10;99.90
2327;DHT22;1174;51.588;7.328;2023-04-24T11:38:23;10.10;99.90
2327;DHT22;1174;51.588;7.328;2023-04-24T11:41:25;10.20;99.90
2327;DHT22;1174;51.588;7.328;2023-04-24T11:47:08;10.40;99.90
2327;DHT22;1174;51.588;7.328;2023-04-24T11:49:38;10.60;99.90
2327;DHT22;1174;51.588;7.328;2023-04-24T11:52:17;10.60;99.90
2327;DHT22;1174;51.588;7.328;2023-04-24T11:54:54;10.80;99.90
2327;DHT22;1174;51.588;7.328;2023-04-24T11:57:26;10.90;99.90
2327;DHT22;1174;51.588;7.328;2023-04-24T12:00:06;11.00;99.90
2327;DHT22;1174;51.588;7.328;2023-04-24T12:02:36;11.20;99.90
2327;DHT22;1174;51.588;7.328;2023-04-24T12:05:07;11.40;99.90
2327;DHT22;1174;51.588;7.328;2023-04-24T12:07:42;11.30;99.90
2327;DHT22;1174;51.588;7.328;2023-04-24T12:10:19;11.30;99.90
2327;DHT22;1174;51.588;7.328;2023-04-24T12:12:47;11.60;99.90
2327;DHT22;1174;51.588;7.328;2023-04-24T12:15:33;11.90;99.90
2327;DHT22;1174;51.588;7.328;2023-04-24T12:18:11;11.80;99.90
2327;DHT22;1174;51.588;7.328;2023-04-24T12:24:05;11.30;99.90
2327;DHT22;1174;51.588;7.328;2023-04-24T12:26:34;11.70;99.90
2327;DHT22;1174;51.588;7.328;2023-04-24T12:29:19;11.90;99.90
2327;DHT22;1174;51.588;7.328;2023-04-24T12:31:53;12.20;99.90
2327;DHT22;1174;51.588;7.328;2023-04-24T12:34:34;12.10;99.90
2327;DHT22;1174;51.588;7.328;2023-04-24T12:37:10;12.00;99.90
2327;DHT22;1174;51.588;7.328;2023-04-24T12:39:39;12.10;99.90
2327;DHT22;1174;51.588;7.328;2023-04-24T12:42:12;12.20;99.90
2327;DHT22;1174;51.588;7.328;2023-04-24T12:44:39;12.90;99.90
2327;DHT22;1174;51.588;7.328;2023-04-24T12:47:09;12.70;99.90
2327;DHT22;1174;51.588;7.328;2023-04-24T12:49:36;12.30;99.90
2327;DHT22;1174;51.588;7.328;2023-04-24T12:52:06;12.10;99.90
2327;DHT22;1174;51.588;7.328;2023-04-24T12:54:33;11.80;99.90
2327;DHT22;1174;51.588;7.328;2023-04-24T12:57:04;11.70;99.90
2327;DHT22;1174;51.588;7.328;2023-04-24T12:59:35;11.40;99.90
2327;DHT22;1174;51.588;7.328;2023-04-24T13:02:02;11.20;99.90
2327;DHT22;1174;51.588;7.328;2023-04-24T13:04:29;11.20;99.90
2327;DHT22;1174;51.588;7.328;2023-04-24T13:06:56;11.10;99.90
2327;DHT22;1174;51.588;7.328;2023-04-24T13:09:23;11.10;99.90
2327;DHT22;1174;51.588;7.328;2023-04-24T13:11:50;11.30;99.90
2327;DHT22;1174;51.588;7.328;2023-04-24T13:14:22;11.50;99.90
2327;DHT22;1174;51.588;7.328;2023-04-24T13:16:49;11.60;99.90
2327;DHT22;1174;51.588;7.328;2023-04-24T13:19:19;11.60;99.90
2327;DHT22;1174;51.588;7.328;2023-04-24T13:21:46;11.70;99.90
2327;DHT22;1174;51.588;7.328;2023-04-24T13:24:13;11.50;99.90
2327;DHT22;1174;51.588;7.328;2023-04-24T13:26:41;11.50;99.90
2327;DHT22;1174;51.588;7.328;2023-04-24T13:29:08;11.30;99.90
2327;DHT22;1174;51.588;7.328;2023-04-24T13:31:37;11.20;99.90
2327;DHT22;1174;51.588;7.328;2023-04-24T13:34:04;10.90;99.90
2327;DHT22;1174;51.588;7.328;2023-04-24T13:36:31;10.80;99.90
2327;DHT22;1174;51.588;7.328;2023-04-24T13:38:58;11.00;99.90
2327;DHT22;1174;51.588;7.328;2023-04-24T13:41:25;10.90;99.90
2327;DHT22;1174;51.588;7.328;2023-04-24T13:43:52;11.00;99.90
2327;DHT22;1174;51.588;7.328;2023-04-24T13:46:20;11.10;99.90
2327;DHT22;1174;51.588;7.328;2023-04-24T13:48:48;11.20;99.90
2327;DHT22;1174;51.588;7.328;2023-04-24T13:51:15;11.20;99.90
2327;DHT22;1174;51.588;7.328;2023-04-24T13:53:47;11.20;99.90
2327;DHT22;1174;51.588;7.328;2023-04-24T13:56:14;11.30;99.90
2327;DHT22;1174;51.588;7.328;2023-04-24T13:58:43;11.30;99.90
2327;DHT22;1174;51.588;7.328;2023-04-24T14:01:12;11.40;99.90
2327;DHT22;1174;51.588;7.328;2023-04-24T14:03:40;11.60;99.90
2327;DHT22;1174;51.588;7.328;2023-04-24T14:06:10;11.70;99.90
2327;DHT22;1174;51.588;7.328;2023-04-24T14:08:37;11.60;99.90
2327;DHT22;1174;51.588;7.328;2023-04-24T14:11:04;11.70;99.90
2327;DHT22;1174;51.588;7.328;2023-04-24T14:13:31;11.80;99.90
2327;DHT22;1174;51.588;7.328;2023-04-24T14:15:58;11.90;99.90
2327;DHT22;1174;51.588;7.328;2023-04-24T14:18:25;12.00;99.90
2327;DHT22;1174;51.588;7.328;2023-04-24T14:20:52;11.90;99.90
2327;DHT22;1174;51.588;7.328;2023-04-24T14:23:23;11.70;99.90
2327;DHT22;1174;51.588;7.328;2023-04-24T14:25:51;11.50;99.90
2327;DHT22;1174;51.588;7.328;2023-04-24T14:28:21;11.70;99.90
2327;DHT22;1174;51.588;7.328;2023-04-24T14:30:50;12.00;99.90
2327;DHT22;1174;51.588;7.328;2023-04-24T14:33:17;12.20;99.90
2327;DHT22;1174;51.588;7.328;2023-04-24T14:35:45;12.20;99.90
2327;DHT22;1174;51.588;7.328;2023-04-24T14:38:13;12.10;99.90
2327;DHT22;1174;51.588;7.328;2023-04-24T14:40:43;11.90;99.90
2327;DHT22;1174;51.588;7.328;2023-04-24T14:43:11;11.70;99.90
2327;DHT22;1174;51.588;7.328;2023-04-24T14:45:38;11.70;99.90
2327;DHT22;1174;51.588;7.328;2023-04-24T14:48:07;11.50;99.90
2327;DHT22;1174;51.588;7.328;2023-04-24T14:50:35;11.30;99.90
2327;DHT22;1174;51.588;7.328;2023-04-24T14:53:02;11.20;99.90
2327;DHT22;1174;51.588;7.328;2023-04-24T14:55:31;10.90;99.90
2327;DHT22;1174;51.588;7.328;2023-04-24T14:58:00;11.00;99.90
2327;DHT22;1174;51.588;7.328;2023-04-24T15:00:28;10.90;99.90
2327;DHT22;1174;51.588;7.328;2023-04-24T15:02:55;10.70;99.90
2327;DHT22;1174;51.588;7.328;2023-04-24T15:05:22;10.50;99.90
2327;DHT22;1174;51.588;7.328;2023-04-24T15:07:52;10.40;99.90
2327;DHT22;1174;51.588;7.328;2023-04-24T15:10:25;10.70;99.90
2327;DHT22;1174;51.588;7.328;2023-04-24T15:13:02;11.20;99.90
2327;DHT22;1174;51.588;7.328;2023-04-24T15:15:34;11.30;99.90
2327;DHT22;1174;51.588;7.328;2023-04-24T15:18:03;11.10;99.90
2327;DHT22;1174;51.588;7.328;2023-04-24T15:20:31;11.10;99.90
2327;DHT22;1174;51.588;7.328;2023-04-24T15:22:58;11.20;99.90
2327;DHT22;1174;51.588;7.328;2023-04-24T15:25:28;11.10;99.90
2327;DHT22;1174;51.588;7.328;2023-04-24T15:27:58;11.40;99.90
2327;DHT22;1174;51.588;7.328;2023-04-24T15:30:27;11.60;99.90
2327;DHT22;1174;51.588;7.328;2023-04-24T15:32:54;11.70;99.90
2327;DHT22;1174;51.588;7.328;2023-04-24T15:35:21;11.80;99.90
2327;DHT22;1174;51.588;7.328;2023-04-24T15:37:48;12.00;99.90
2327;DHT22;1174;51.588;7.328;2023-04-24T15:40:16;11.90;99.90
2327;DHT22;1174;51.588;7.328;2023-04-24T15:42:44;11.80;99.90
2327;DHT22;1174;51.588;7.328;2023-04-24T15:45:11;11.70;99.90
2327;DHT22;1174;51.588;7.328;2023-04-24T15:47:44;11.60;99.90
2327;DHT22;1174;51.588;7.328;2023-04-24T15:50:11;11.40;99.90
2327;DHT22;1174;51.588;7.328;2023-04-24T15:52:41;11.30;99.90
2327;DHT22;1174;51.588;7.328;2023-04-24T15:55:09;11.10;99.90
2327;DHT22;1174;51.588;7.328;2023-04-24T15:57:36;11.00;99.90
2327;DHT22;1174;51.588;7.328;2023-04-24T16:00:07;11.00;99.90
2327;DHT22;1174;51.588;7.328;2023-04-24T16:02:37;11.10;99.90
2327;DHT22;1174;51.588;7.328;2023-04-24T16:05:09;11.10;99.90
2327;DHT22;1174;51.588;7.328;2023-04-24T16:07:37;11.00;99.90
2327;DHT22;1174;51.588;7.328;2023-04-24T16:10:05;11.00;99.90
2327;DHT22;1174;51.588;7.328;2023-04-24T16:12:35;11.10;99.90
2327;DHT22;1174;51.588;7.328;2023-04-24T16:15:04;11.20;99.90
2327;DHT22;1174;51.588;7.328;2023-04-24T16:17:31;11.30;99.90
2327;DHT22;1174;51.588;7.328;2023-04-24T16:19:58;11.20;99.90
2327;DHT22;1174;51.588;7.328;2023-04-24T16:22:27;11.30;99.90
2327;DHT22;1174;51.588;7.328;2023-04-24T16:24:55;11.30;99.90
2327;DHT22;1174;51.588;7.328;2023-04-24T16:27:23;11.60;99.90
2327;DHT22;1174;51.588;7.328;2023-04-24T16:29:50;11.80;99.90
2327;DHT22;1174;51.588;7.328;2023-04-24T16:32:18;11.90;99.90
2327;DHT22;1174;51.588;7.328;2023-04-24T16:34:45;11.70;99.90
2327;DHT22;1174;51.588;7.328;2023-04-24T16:37:12;11.60;99.90
2327;DHT22;1174;51.588;7.328;2023-04-24T16:39:40;11.50;99.90
2327;DHT22;1174;51.588;7.328;2023-04-24T16:42:09;11.60;99.90
2327;DHT22;1174;51.588;7.328;2023-04-24T16:44:41;11.80;99.90
2327;DHT22;1174;51.588;7.328;2023-04-24T16:47:14;11.70;99.90
2327;DHT22;1174;51.588;7.328;2023-04-24T16:49:42;11.60;99.90
2327;DHT22;1174;51.588;7.328;2023-04-24T16:52:10;11.70;99.90
2327;DHT22;1174;51.588;7.328;2023-04-24T16:54:37;11.60;99.90
2327;DHT22;1174;51.588;7.328;2023-04-24T16:57:06;11.40;99.90
2327;DHT22;1174;51.588;7.328;2023-04-24T16:59:33;11.20;99.90